sensor_id;sensor_type;location;lat;lon;timestamp;P1;durP1;ratioP1;P2;durP2;ratioP2
64619;SDS011;51029;51.058;13.826;2023-08-30T00:00:35;4.37;;;4.07;;
64619;SDS011;51029;51.058;13.826;2023-08-30T00:03:01;4.83;;;4.40;;
64619;SDS011;51029;51.058;13.826;2023-08-30T00:05:26;4.50;;;4.07;;
64619;SDS011;51029;51.058;13.826;2023-08-30T00:07:55;4.10;;;3.80;;
64619;SDS011;51029;51.058;13.826;2023-08-30T00:10:21;6.20;;;4.10;;
64619;SDS011;51029;51.058;13.826;2023-08-30T00:12:46;4.60;;;4.20;;
64619;SDS011;51029;51.058;13.826;2023-08-30T00:15:12;4.90;;;4.50;;
64619;SDS011;51029;51.058;13.826;2023-08-30T00:17:38;7.07;;;4.57;;
64619;SDS011;51029;51.058;13.826;2023-08-30T00:20:04;5.57;;;5.00;;
64619;SDS011;51029;51.058;13.826;2023-08-30T00:22:31;6.07;;;5.03;;
64619;SDS011;51029;51.058;13.826;2023-08-30T00:24:57;6.17;;;5.57;;
64619;SDS011;51029;51.058;13.826;2023-08-30T00:27:22;5.87;;;4.77;;
64619;SDS011;51029;51.058;13.826;2023-08-30T00:29:48;4.80;;;4.40;;
64619;SDS011;51029;51.058;13.826;2023-08-30T00:32:14;5.73;;;5.23;;
64619;SDS011;51029;51.058;13.826;2023-08-30T00:34:39;8.37;;;4.67;;
64619;SDS011;51029;51.058;13.826;2023-08-30T00:37:05;5.60;;;4.37;;
64619;SDS011;51029;51.058;13.826;2023-08-30T00:39:30;4.77;;;4.27;;
64619;SDS011;51029;51.058;13.826;2023-08-30T00:41:56;5.33;;;4.50;;
64619;SDS011;51029;51.058;13.826;2023-08-30T00:44:21;6.67;;;4.37;;
64619;SDS011;51029;51.058;13.826;2023-08-30T00:46:47;4.60;;;3.90;;
64619;SDS011;51029;51.058;13.826;2023-08-30T00:49:13;4.47;;;3.90;;
64619;SDS011;51029;51.058;13.826;2023-08-30T00:51:39;4.00;;;3.63;;
64619;SDS011;51029;51.058;13.826;2023-08-30T00:54:05;4.00;;;3.40;;
64619;SDS011;51029;51.058;13.826;2023-08-30T00:56:32;3.90;;;3.20;;
64619;SDS011;51029;51.058;13.826;2023-08-30T00:58:58;4.43;;;3.10;;
64619;SDS011;51029;51.058;13.826;2023-08-30T01:01:24;3.53;;;3.23;;
64619;SDS011;51029;51.058;13.826;2023-08-30T01:03:50;3.93;;;3.17;;
64619;SDS011;51029;51.058;13.826;2023-08-30T01:06:16;3.20;;;2.90;;
64619;SDS011;51029;51.058;13.826;2023-08-30T01:08:42;3.40;;;3.10;;
64619;SDS011;51029;51.058;13.826;2023-08-30T01:13:58;3.30;;;3.00;;
64619;SDS011;51029;51.058;13.826;2023-08-30T01:16:37;3.47;;;3.17;;
64619;SDS011;51029;51.058;13.826;2023-08-30T01:19:05;3.77;;;3.30;;
64619;SDS011;51029;51.058;13.826;2023-08-30T01:21:53;4.37;;;3.97;;
64619;SDS011;51029;51.058;13.826;2023-08-30T01:24:28;4.00;;;3.60;;
64619;SDS011;51029;51.058;13.826;2023-08-30T01:27:11;3.73;;;3.43;;
64619;SDS011;51029;51.058;13.826;2023-08-30T01:29:37;4.33;;;3.90;;
64619;SDS011;51029;51.058;13.826;2023-08-30T01:32:07;4.10;;;3.70;;
64619;SDS011;51029;51.058;13.826;2023-08-30T01:34:36;7.33;;;4.33;;
64619;SDS011;51029;51.058;13.826;2023-08-30T01:37:04;4.33;;;4.03;;
64619;SDS011;51029;51.058;13.826;2023-08-30T01:39:33;4.93;;;3.93;;
64619;SDS011;51029;51.058;13.826;2023-08-30T01:42:01;4.00;;;3.70;;
64619;SDS011;51029;51.058;13.826;2023-08-30T01:44:28;4.60;;;4.10;;
64619;SDS011;51029;51.058;13.826;2023-08-30T01:46:55;5.53;;;3.93;;
64619;SDS011;51029;51.058;13.826;2023-08-30T01:49:21;4.73;;;4.43;;
64619;SDS011;51029;51.058;13.826;2023-08-30T01:51:48;5.17;;;4.40;;
64619;SDS011;51029;51.058;13.826;2023-08-30T01:54:16;5.23;;;4.47;;
64619;SDS011;51029;51.058;13.826;2023-08-30T01:56:43;5.00;;;4.60;;
64619;SDS011;51029;51.058;13.826;2023-08-30T01:59:12;5.77;;;4.80;;
64619;SDS011;51029;51.058;13.826;2023-08-30T02:01:38;4.90;;;4.47;;
64619;SDS011;51029;51.058;13.826;2023-08-30T02:04:04;5.30;;;4.80;;
64619;SDS011;51029;51.058;13.826;2023-08-30T02:09:13;5.37;;;4.97;;
64619;SDS011;51029;51.058;13.826;2023-08-30T02:11:43;6.30;;;5.70;;
64619;SDS011;51029;51.058;13.826;2023-08-30T02:14:11;5.90;;;5.40;;
64619;SDS011;51029;51.058;13.826;2023-08-30T02:16:42;6.00;;;5.60;;
64619;SDS011;51029;51.058;13.826;2023-08-30T02:19:09;6.93;;;6.13;;
64619;SDS011;51029;51.058;13.826;2023-08-30T02:21:36;6.63;;;5.90;;
64619;SDS011;51029;51.058;13.826;2023-08-30T02:24:02;6.20;;;5.70;;
64619;SDS011;51029;51.058;13.826;2023-08-30T02:26:28;6.43;;;5.83;;
64619;SDS011;51029;51.058;13.826;2023-08-30T02:28:53;6.33;;;5.70;;
64619;SDS011;51029;51.058;13.826;2023-08-30T02:31:19;6.80;;;6.20;;
64619;SDS011;51029;51.058;13.826;2023-08-30T02:33:44;6.83;;;6.30;;
64619;SDS011;51029;51.058;13.826;2023-08-30T02:36:10;7.40;;;6.80;;
64619;SDS011;51029;51.058;13.826;2023-08-30T02:38:35;7.57;;;6.57;;
64619;SDS011;51029;51.058;13.826;2023-08-30T02:41:01;7.70;;;6.53;;
64619;SDS011;51029;51.058;13.826;2023-08-30T02:43:27;10.47;;;9.37;;
64619;SDS011;51029;51.058;13.826;2023-08-30T02:45:53;7.40;;;6.67;;
64619;SDS011;51029;51.058;13.826;2023-08-30T02:48:19;6.97;;;6.27;;
64619;SDS011;51029;51.058;13.826;2023-08-30T02:50:45;7.30;;;6.60;;
64619;SDS011;51029;51.058;13.826;2023-08-30T02:53:11;8.30;;;7.60;;
64619;SDS011;51029;51.058;13.826;2023-08-30T02:55:36;7.50;;;6.80;;
64619;SDS011;51029;51.058;13.826;2023-08-30T02:58:02;7.60;;;6.97;;
64619;SDS011;51029;51.058;13.826;2023-08-30T03:00:28;6.87;;;6.20;;
64619;SDS011;51029;51.058;13.826;2023-08-30T03:02:53;7.60;;;6.90;;
64619;SDS011;51029;51.058;13.826;2023-08-30T03:05:19;7.77;;;6.97;;
64619;SDS011;51029;51.058;13.826;2023-08-30T03:07:45;6.60;;;5.83;;
64619;SDS011;51029;51.058;13.826;2023-08-30T03:10:11;7.47;;;6.67;;
64619;SDS011;51029;51.058;13.826;2023-08-30T03:12:37;10.73;;;6.77;;
64619;SDS011;51029;51.058;13.826;2023-08-30T03:15:03;8.37;;;7.23;;
64619;SDS011;51029;51.058;13.826;2023-08-30T03:17:29;7.60;;;6.90;;
64619;SDS011;51029;51.058;13.826;2023-08-30T03:19:55;7.00;;;6.40;;
64619;SDS011;51029;51.058;13.826;2023-08-30T03:22:20;7.40;;;6.80;;
64619;SDS011;51029;51.058;13.826;2023-08-30T03:24:46;9.10;;;7.27;;
64619;SDS011;51029;51.058;13.826;2023-08-30T03:27:12;8.13;;;7.40;;
64619;SDS011;51029;51.058;13.826;2023-08-30T03:29:37;8.63;;;7.83;;
64619;SDS011;51029;51.058;13.826;2023-08-30T03:32:03;7.70;;;6.83;;
64619;SDS011;51029;51.058;13.826;2023-08-30T03:34:30;9.93;;;7.33;;
64619;SDS011;51029;51.058;13.826;2023-08-30T03:36:56;7.87;;;7.17;;
64619;SDS011;51029;51.058;13.826;2023-08-30T03:39:22;8.27;;;7.57;;
64619;SDS011;51029;51.058;13.826;2023-08-30T03:41:48;7.87;;;7.13;;
64619;SDS011;51029;51.058;13.826;2023-08-30T03:44:14;7.77;;;7.07;;
64619;SDS011;51029;51.058;13.826;2023-08-30T03:46:40;10.07;;;7.27;;
64619;SDS011;51029;51.058;13.826;2023-08-30T03:49:05;9.97;;;7.67;;
64619;SDS011;51029;51.058;13.826;2023-08-30T03:51:31;8.03;;;7.33;;
64619;SDS011;51029;51.058;13.826;2023-08-30T03:53:57;8.30;;;7.47;;
64619;SDS011;51029;51.058;13.826;2023-08-30T03:56:22;6.80;;;6.13;;
64619;SDS011;51029;51.058;13.826;2023-08-30T03:58:48;7.77;;;6.97;;
64619;SDS011;51029;51.058;13.826;2023-08-30T04:01:13;6.43;;;5.83;;
64619;SDS011;51029;51.058;13.826;2023-08-30T04:03:39;7.90;;;6.40;;
64619;SDS011;51029;51.058;13.826;2023-08-30T04:06:05;9.37;;;7.60;;
64619;SDS011;51029;51.058;13.826;2023-08-30T04:08:30;7.17;;;6.47;;
64619;SDS011;51029;51.058;13.826;2023-08-30T04:10:56;7.67;;;6.77;;
64619;SDS011;51029;51.058;13.826;2023-08-30T04:13:22;8.53;;;6.40;;
64619;SDS011;51029;51.058;13.826;2023-08-30T04:15:47;7.63;;;6.63;;
64619;SDS011;51029;51.058;13.826;2023-08-30T04:18:13;8.00;;;7.13;;
64619;SDS011;51029;51.058;13.826;2023-08-30T04:20:43;7.33;;;6.63;;
64619;SDS011;51029;51.058;13.826;2023-08-30T04:23:12;7.10;;;6.40;;
64619;SDS011;51029;51.058;13.826;2023-08-30T04:25:38;7.17;;;6.57;;
64619;SDS011;51029;51.058;13.826;2023-08-30T04:28:04;7.17;;;6.30;;
64619;SDS011;51029;51.058;13.826;2023-08-30T04:30:29;7.07;;;6.47;;
64619;SDS011;51029;51.058;13.826;2023-08-30T04:32:55;7.70;;;6.60;;
64619;SDS011;51029;51.058;13.826;2023-08-30T04:35:21;9.53;;;6.80;;
64619;SDS011;51029;51.058;13.826;2023-08-30T04:37:46;7.63;;;6.93;;
64619;SDS011;51029;51.058;13.826;2023-08-30T04:40:13;8.20;;;7.40;;
64619;SDS011;51029;51.058;13.826;2023-08-30T04:42:39;7.40;;;6.70;;
64619;SDS011;51029;51.058;13.826;2023-08-30T04:45:05;8.60;;;7.30;;
64619;SDS011;51029;51.058;13.826;2023-08-30T04:47:32;8.47;;;6.40;;
64619;SDS011;51029;51.058;13.826;2023-08-30T04:49:58;6.90;;;6.30;;
64619;SDS011;51029;51.058;13.826;2023-08-30T04:52:24;7.53;;;6.80;;
64619;SDS011;51029;51.058;13.826;2023-08-30T04:54:50;6.77;;;6.17;;
64619;SDS011;51029;51.058;13.826;2023-08-30T04:57:16;6.70;;;6.10;;
64619;SDS011;51029;51.058;13.826;2023-08-30T04:59:45;7.63;;;6.93;;
64619;SDS011;51029;51.058;13.826;2023-08-30T05:02:11;7.03;;;6.33;;
64619;SDS011;51029;51.058;13.826;2023-08-30T05:04:37;7.27;;;6.50;;
64619;SDS011;51029;51.058;13.826;2023-08-30T05:07:03;7.87;;;7.07;;
64619;SDS011;51029;51.058;13.826;2023-08-30T05:09:32;9.97;;;7.20;;
64619;SDS011;51029;51.058;13.826;2023-08-30T05:11:58;6.43;;;5.83;;
64619;SDS011;51029;51.058;13.826;2023-08-30T05:14:23;8.23;;;6.90;;
64619;SDS011;51029;51.058;13.826;2023-08-30T05:16:49;9.00;;;7.20;;
64619;SDS011;51029;51.058;13.826;2023-08-30T05:19:15;7.60;;;6.80;;
64619;SDS011;51029;51.058;13.826;2023-08-30T05:21:42;7.37;;;6.67;;
64619;SDS011;51029;51.058;13.826;2023-08-30T05:24:08;10.00;;;6.57;;
64619;SDS011;51029;51.058;13.826;2023-08-30T05:26:33;7.63;;;6.83;;
64619;SDS011;51029;51.058;13.826;2023-08-30T05:28:59;7.07;;;6.37;;
64619;SDS011;51029;51.058;13.826;2023-08-30T05:31:25;7.37;;;5.87;;
64619;SDS011;51029;51.058;13.826;2023-08-30T05:33:50;7.80;;;7.00;;
64619;SDS011;51029;51.058;13.826;2023-08-30T05:36:16;7.53;;;6.57;;
64619;SDS011;51029;51.058;13.826;2023-08-30T05:38:42;7.63;;;5.90;;
64619;SDS011;51029;51.058;13.826;2023-08-30T05:41:08;7.93;;;5.97;;
64619;SDS011;51029;51.058;13.826;2023-08-30T05:43:33;7.00;;;5.80;;
64619;SDS011;51029;51.058;13.826;2023-08-30T05:45:59;6.37;;;5.60;;
64619;SDS011;51029;51.058;13.826;2023-08-30T05:48:27;6.63;;;5.10;;
64619;SDS011;51029;51.058;13.826;2023-08-30T05:50:56;7.37;;;6.30;;
64619;SDS011;51029;51.058;13.826;2023-08-30T05:53:22;6.37;;;5.77;;
64619;SDS011;51029;51.058;13.826;2023-08-30T05:55:48;6.10;;;5.50;;
64619;SDS011;51029;51.058;13.826;2023-08-30T05:58:13;7.67;;;6.53;;
64619;SDS011;51029;51.058;13.826;2023-08-30T06:00:40;7.00;;;6.40;;
64619;SDS011;51029;51.058;13.826;2023-08-30T06:03:06;6.67;;;6.07;;
64619;SDS011;51029;51.058;13.826;2023-08-30T06:05:31;6.63;;;5.70;;
64619;SDS011;51029;51.058;13.826;2023-08-30T06:07:57;7.13;;;5.80;;
64619;SDS011;51029;51.058;13.826;2023-08-30T06:10:23;7.17;;;5.47;;
64619;SDS011;51029;51.058;13.826;2023-08-30T06:12:49;6.30;;;5.70;;
64619;SDS011;51029;51.058;13.826;2023-08-30T06:15:14;6.00;;;5.43;;
64619;SDS011;51029;51.058;13.826;2023-08-30T06:17:40;7.37;;;5.20;;
64619;SDS011;51029;51.058;13.826;2023-08-30T06:20:06;6.60;;;5.47;;
64619;SDS011;51029;51.058;13.826;2023-08-30T06:22:31;7.73;;;6.13;;
64619;SDS011;51029;51.058;13.826;2023-08-30T06:24:57;5.77;;;4.90;;
64619;SDS011;51029;51.058;13.826;2023-08-30T06:27:23;8.13;;;5.57;;
64619;SDS011;51029;51.058;13.826;2023-08-30T06:29:49;6.70;;;5.10;;
64619;SDS011;51029;51.058;13.826;2023-08-30T06:32:15;6.50;;;5.00;;
64619;SDS011;51029;51.058;13.826;2023-08-30T06:34:41;6.50;;;5.17;;
64619;SDS011;51029;51.058;13.826;2023-08-30T06:37:07;6.33;;;4.93;;
64619;SDS011;51029;51.058;13.826;2023-08-30T06:39:33;6.40;;;4.80;;
64619;SDS011;51029;51.058;13.826;2023-08-30T06:42:02;4.87;;;4.47;;
64619;SDS011;51029;51.058;13.826;2023-08-30T06:44:29;5.30;;;4.83;;
64619;SDS011;51029;51.058;13.826;2023-08-30T06:46:55;6.57;;;5.10;;
64619;SDS011;51029;51.058;13.826;2023-08-30T06:49:21;8.10;;;5.13;;
64619;SDS011;51029;51.058;13.826;2023-08-30T06:51:47;5.53;;;4.73;;
64619;SDS011;51029;51.058;13.826;2023-08-30T06:54:13;5.23;;;4.40;;
64619;SDS011;51029;51.058;13.826;2023-08-30T06:56:38;6.30;;;5.00;;
64619;SDS011;51029;51.058;13.826;2023-08-30T06:59:04;11.50;;;8.80;;
64619;SDS011;51029;51.058;13.826;2023-08-30T07:01:29;6.60;;;4.60;;
64619;SDS011;51029;51.058;13.826;2023-08-30T07:03:55;7.87;;;5.00;;
64619;SDS011;51029;51.058;13.826;2023-08-30T07:06:20;7.47;;;4.63;;
64619;SDS011;51029;51.058;13.826;2023-08-30T07:08:46;7.00;;;4.90;;
64619;SDS011;51029;51.058;13.826;2023-08-30T07:11:12;5.10;;;4.60;;
64619;SDS011;51029;51.058;13.826;2023-08-30T07:13:37;5.67;;;5.17;;
64619;SDS011;51029;51.058;13.826;2023-08-30T07:16:03;9.83;;;5.70;;
64619;SDS011;51029;51.058;13.826;2023-08-30T07:18:28;6.07;;;5.40;;
64619;SDS011;51029;51.058;13.826;2023-08-30T07:20:54;6.33;;;5.60;;
64619;SDS011;51029;51.058;13.826;2023-08-30T07:23:19;8.40;;;5.30;;
64619;SDS011;51029;51.058;13.826;2023-08-30T07:25:45;6.83;;;5.23;;
64619;SDS011;51029;51.058;13.826;2023-08-30T07:28:10;10.53;;;6.10;;
64619;SDS011;51029;51.058;13.826;2023-08-30T07:30:36;8.00;;;5.83;;
64619;SDS011;51029;51.058;13.826;2023-08-30T07:33:03;8.30;;;6.27;;
64619;SDS011;51029;51.058;13.826;2023-08-30T07:35:29;6.87;;;6.17;;
64619;SDS011;51029;51.058;13.826;2023-08-30T07:37:55;7.57;;;6.67;;
64619;SDS011;51029;51.058;13.826;2023-08-30T07:40:21;8.43;;;6.40;;
64619;SDS011;51029;51.058;13.826;2023-08-30T07:42:51;7.63;;;6.33;;
64619;SDS011;51029;51.058;13.826;2023-08-30T07:45:17;7.30;;;6.70;;
64619;SDS011;51029;51.058;13.826;2023-08-30T07:47:42;8.33;;;7.03;;
64619;SDS011;51029;51.058;13.826;2023-08-30T07:50:08;7.87;;;6.50;;
64619;SDS011;51029;51.058;13.826;2023-08-30T07:52:34;9.53;;;6.90;;
64619;SDS011;51029;51.058;13.826;2023-08-30T07:54:59;7.87;;;6.97;;
64619;SDS011;51029;51.058;13.826;2023-08-30T07:57:25;8.27;;;7.43;;
64619;SDS011;51029;51.058;13.826;2023-08-30T07:59:50;8.47;;;7.70;;
64619;SDS011;51029;51.058;13.826;2023-08-30T08:02:16;8.03;;;7.23;;
64619;SDS011;51029;51.058;13.826;2023-08-30T08:04:42;9.17;;;8.07;;
64619;SDS011;51029;51.058;13.826;2023-08-30T08:07:08;8.80;;;7.77;;
64619;SDS011;51029;51.058;13.826;2023-08-30T08:09:33;10.53;;;7.53;;
64619;SDS011;51029;51.058;13.826;2023-08-30T08:11:59;8.80;;;7.07;;
64619;SDS011;51029;51.058;13.826;2023-08-30T08:14:25;8.17;;;6.73;;
64619;SDS011;51029;51.058;13.826;2023-08-30T08:16:50;7.33;;;6.37;;
64619;SDS011;51029;51.058;13.826;2023-08-30T08:19:16;6.93;;;6.17;;
64619;SDS011;51029;51.058;13.826;2023-08-30T08:21:42;9.67;;;5.90;;
64619;SDS011;51029;51.058;13.826;2023-08-30T08:24:07;6.63;;;6.00;;
64619;SDS011;51029;51.058;13.826;2023-08-30T08:26:33;6.53;;;5.83;;
64619;SDS011;51029;51.058;13.826;2023-08-30T08:28:58;6.47;;;5.80;;
64619;SDS011;51029;51.058;13.826;2023-08-30T08:31:25;6.20;;;5.60;;
64619;SDS011;51029;51.058;13.826;2023-08-30T08:33:51;6.67;;;5.40;;
64619;SDS011;51029;51.058;13.826;2023-08-30T08:36:29;5.77;;;5.27;;
64619;SDS011;51029;51.058;13.826;2023-08-30T08:38:55;5.63;;;4.53;;
64619;SDS011;51029;51.058;13.826;2023-08-30T08:41:20;5.07;;;4.53;;
64619;SDS011;51029;51.058;13.826;2023-08-30T08:43:47;4.60;;;4.17;;
64619;SDS011;51029;51.058;13.826;2023-08-30T08:46:13;4.93;;;4.30;;
64619;SDS011;51029;51.058;13.826;2023-08-30T08:48:40;4.27;;;3.87;;
64619;SDS011;51029;51.058;13.826;2023-08-30T08:51:07;6.27;;;4.23;;
64619;SDS011;51029;51.058;13.826;2023-08-30T08:53:33;4.73;;;4.23;;
64619;SDS011;51029;51.058;13.826;2023-08-30T08:55:59;4.70;;;3.77;;
64619;SDS011;51029;51.058;13.826;2023-08-30T08:58:26;5.30;;;4.40;;
64619;SDS011;51029;51.058;13.826;2023-08-30T09:00:52;5.90;;;4.17;;
64619;SDS011;51029;51.058;13.826;2023-08-30T09:03:19;4.27;;;3.50;;
64619;SDS011;51029;51.058;13.826;2023-08-30T09:05:46;4.90;;;4.07;;
64619;SDS011;51029;51.058;13.826;2023-08-30T09:08:13;4.47;;;4.00;;
64619;SDS011;51029;51.058;13.826;2023-08-30T09:10:41;4.07;;;3.67;;
64619;SDS011;51029;51.058;13.826;2023-08-30T09:13:07;5.60;;;3.53;;
64619;SDS011;51029;51.058;13.826;2023-08-30T09:15:34;3.73;;;3.37;;
64619;SDS011;51029;51.058;13.826;2023-08-30T09:18:02;6.27;;;3.93;;
64619;SDS011;51029;51.058;13.826;2023-08-30T09:20:28;4.87;;;3.87;;
64619;SDS011;51029;51.058;13.826;2023-08-30T09:22:53;4.13;;;3.70;;
64619;SDS011;51029;51.058;13.826;2023-08-30T09:25:23;5.50;;;4.33;;
64619;SDS011;51029;51.058;13.826;2023-08-30T09:27:50;5.27;;;3.77;;
64619;SDS011;51029;51.058;13.826;2023-08-30T09:30:20;6.23;;;4.10;;
64619;SDS011;51029;51.058;13.826;2023-08-30T09:32:47;5.67;;;3.37;;
64619;SDS011;51029;51.058;13.826;2023-08-30T09:35:12;4.40;;;3.10;;
64619;SDS011;51029;51.058;13.826;2023-08-30T09:37:38;4.23;;;3.27;;
64619;SDS011;51029;51.058;13.826;2023-08-30T09:40:04;4.97;;;3.40;;
64619;SDS011;51029;51.058;13.826;2023-08-30T09:42:30;3.97;;;3.00;;
64619;SDS011;51029;51.058;13.826;2023-08-30T09:44:56;21.70;;;19.40;;
64619;SDS011;51029;51.058;13.826;2023-08-30T09:47:23;4.87;;;3.83;;
64619;SDS011;51029;51.058;13.826;2023-08-30T09:49:51;4.73;;;3.10;;
64619;SDS011;51029;51.058;13.826;2023-08-30T09:52:20;6.70;;;3.00;;
64619;SDS011;51029;51.058;13.826;2023-08-30T09:54:49;5.00;;;3.00;;
64619;SDS011;51029;51.058;13.826;2023-08-30T09:57:16;3.77;;;2.90;;
64619;SDS011;51029;51.058;13.826;2023-08-30T09:59:43;3.40;;;3.03;;
64619;SDS011;51029;51.058;13.826;2023-08-30T10:02:09;3.23;;;2.90;;
64619;SDS011;51029;51.058;13.826;2023-08-30T10:04:37;5.87;;;3.10;;
64619;SDS011;51029;51.058;13.826;2023-08-30T10:07:06;3.43;;;3.13;;
64619;SDS011;51029;51.058;13.826;2023-08-30T10:09:32;4.03;;;2.60;;
64619;SDS011;51029;51.058;13.826;2023-08-30T10:11:58;9.93;;;8.83;;
64619;SDS011;51029;51.058;13.826;2023-08-30T10:14:26;3.10;;;2.80;;
64619;SDS011;51029;51.058;13.826;2023-08-30T10:16:52;3.43;;;3.13;;
64619;SDS011;51029;51.058;13.826;2023-08-30T10:19:28;3.20;;;2.90;;
64619;SDS011;51029;51.058;13.826;2023-08-30T10:22:04;2.77;;;2.57;;
64619;SDS011;51029;51.058;13.826;2023-08-30T10:25:01;4.20;;;2.73;;
64619;SDS011;51029;51.058;13.826;2023-08-30T10:27:29;2.90;;;2.70;;
64619;SDS011;51029;51.058;13.826;2023-08-30T10:29:56;4.23;;;2.93;;
64619;SDS011;51029;51.058;13.826;2023-08-30T10:32:24;2.90;;;2.60;;
64619;SDS011;51029;51.058;13.826;2023-08-30T10:34:50;6.13;;;3.40;;
64619;SDS011;51029;51.058;13.826;2023-08-30T10:37:41;5.07;;;3.30;;
64619;SDS011;51029;51.058;13.826;2023-08-30T10:40:12;4.60;;;2.77;;
64619;SDS011;51029;51.058;13.826;2023-08-30T10:42:38;2.90;;;2.30;;
64619;SDS011;51029;51.058;13.826;2023-08-30T10:45:05;3.07;;;2.50;;
64619;SDS011;51029;51.058;13.826;2023-08-30T10:47:33;3.30;;;2.57;;
64619;SDS011;51029;51.058;13.826;2023-08-30T10:50:27;3.23;;;2.27;;
64619;SDS011;51029;51.058;13.826;2023-08-30T10:52:55;3.67;;;2.60;;
64619;SDS011;51029;51.058;13.826;2023-08-30T10:55:22;4.73;;;2.70;;
64619;SDS011;51029;51.058;13.826;2023-08-30T10:57:57;4.37;;;2.30;;
64619;SDS011;51029;51.058;13.826;2023-08-30T11:00:27;5.07;;;2.27;;
64619;SDS011;51029;51.058;13.826;2023-08-30T11:02:55;3.03;;;2.67;;
64619;SDS011;51029;51.058;13.826;2023-08-30T11:05:24;3.50;;;2.20;;
64619;SDS011;51029;51.058;13.826;2023-08-30T11:07:51;2.60;;;2.00;;
64619;SDS011;51029;51.058;13.826;2023-08-30T11:10:17;4.40;;;2.13;;
64619;SDS011;51029;51.058;13.826;2023-08-30T11:12:44;3.03;;;2.13;;
64619;SDS011;51029;51.058;13.826;2023-08-30T11:15:11;4.73;;;2.30;;
64619;SDS011;51029;51.058;13.826;2023-08-30T11:17:41;4.33;;;2.03;;
64619;SDS011;51029;51.058;13.826;2023-08-30T11:20:10;5.37;;;2.20;;
64619;SDS011;51029;51.058;13.826;2023-08-30T11:22:45;4.10;;;2.27;;
64619;SDS011;51029;51.058;13.826;2023-08-30T11:25:12;3.23;;;1.87;;
64619;SDS011;51029;51.058;13.826;2023-08-30T11:27:39;2.73;;;2.10;;
64619;SDS011;51029;51.058;13.826;2023-08-30T11:30:05;2.20;;;1.80;;
64619;SDS011;51029;51.058;13.826;2023-08-30T11:32:33;2.00;;;1.67;;
64619;SDS011;51029;51.058;13.826;2023-08-30T11:35:03;3.27;;;1.50;;
64619;SDS011;51029;51.058;13.826;2023-08-30T11:37:29;3.97;;;1.70;;
64619;SDS011;51029;51.058;13.826;2023-08-30T11:39:55;2.83;;;1.80;;
64619;SDS011;51029;51.058;13.826;2023-08-30T11:42:21;1.73;;;1.30;;
64619;SDS011;51029;51.058;13.826;2023-08-30T11:44:47;3.53;;;1.63;;
64619;SDS011;51029;51.058;13.826;2023-08-30T11:47:23;2.08;;;1.13;;
64619;SDS011;51029;51.058;13.826;2023-08-30T11:49:50;2.55;;;1.67;;
64619;SDS011;51029;51.058;13.826;2023-08-30T11:52:18;2.42;;;1.30;;
64619;SDS011;51029;51.058;13.826;2023-08-30T11:54:46;5.72;;;1.67;;
64619;SDS011;51029;51.058;13.826;2023-08-30T11:57:13;2.63;;;1.30;;
64619;SDS011;51029;51.058;13.826;2023-08-30T11:59:38;4.70;;;1.27;;
64619;SDS011;51029;51.058;13.826;2023-08-30T12:02:04;2.03;;;1.50;;
64619;SDS011;51029;51.058;13.826;2023-08-30T12:04:31;3.03;;;1.50;;
64619;SDS011;51029;51.058;13.826;2023-08-30T12:06:57;1.65;;;1.30;;
64619;SDS011;51029;51.058;13.826;2023-08-30T12:09:26;1.40;;;1.30;;
64619;SDS011;51029;51.058;13.826;2023-08-30T12:12:04;2.60;;;1.20;;
64619;SDS011;51029;51.058;13.826;2023-08-30T12:14:36;3.25;;;1.35;;
64619;SDS011;51029;51.058;13.826;2023-08-30T12:17:02;1.42;;;0.90;;
64619;SDS011;51029;51.058;13.826;2023-08-30T12:19:28;2.40;;;1.17;;
64619;SDS011;51029;51.058;13.826;2023-08-30T12:21:54;1.63;;;1.10;;
64619;SDS011;51029;51.058;13.826;2023-08-30T12:24:19;1.75;;;1.00;;
64619;SDS011;51029;51.058;13.826;2023-08-30T12:26:45;1.80;;;1.02;;
64619;SDS011;51029;51.058;13.826;2023-08-30T12:29:10;1.35;;;1.15;;
64619;SDS011;51029;51.058;13.826;2023-08-30T12:31:36;2.53;;;1.23;;
64619;SDS011;51029;51.058;13.826;2023-08-30T12:34:02;2.95;;;0.98;;
64619;SDS011;51029;51.058;13.826;2023-08-30T12:36:28;3.47;;;1.20;;
64619;SDS011;51029;51.058;13.826;2023-08-30T12:38:54;1.35;;;1.08;;
64619;SDS011;51029;51.058;13.826;2023-08-30T12:41:19;2.38;;;1.08;;
64619;SDS011;51029;51.058;13.826;2023-08-30T12:43:48;2.03;;;1.02;;
64619;SDS011;51029;51.058;13.826;2023-08-30T12:46:15;1.98;;;1.30;;
64619;SDS011;51029;51.058;13.826;2023-08-30T12:48:42;1.70;;;1.23;;
64619;SDS011;51029;51.058;13.826;2023-08-30T12:51:07;3.47;;;1.40;;
64619;SDS011;51029;51.058;13.826;2023-08-30T12:53:33;2.17;;;1.33;;
64619;SDS011;51029;51.058;13.826;2023-08-30T12:55:58;1.98;;;1.23;;
64619;SDS011;51029;51.058;13.826;2023-08-30T12:58:24;1.48;;;1.10;;
64619;SDS011;51029;51.058;13.826;2023-08-30T13:00:49;2.45;;;1.10;;
64619;SDS011;51029;51.058;13.826;2023-08-30T13:03:15;2.85;;;1.10;;
64619;SDS011;51029;51.058;13.826;2023-08-30T13:05:41;1.65;;;1.50;;
64619;SDS011;51029;51.058;13.826;2023-08-30T13:08:06;2.40;;;1.50;;
64619;SDS011;51029;51.058;13.826;2023-08-30T13:10:32;1.63;;;1.40;;
64619;SDS011;51029;51.058;13.826;2023-08-30T13:12:58;1.92;;;1.30;;
64619;SDS011;51029;51.058;13.826;2023-08-30T13:15:23;2.10;;;1.20;;
64619;SDS011;51029;51.058;13.826;2023-08-30T13:17:49;2.10;;;1.65;;
64619;SDS011;51029;51.058;13.826;2023-08-30T13:20:16;2.57;;;1.70;;
64619;SDS011;51029;51.058;13.826;2023-08-30T13:22:42;2.00;;;1.60;;
64619;SDS011;51029;51.058;13.826;2023-08-30T13:25:07;2.47;;;1.70;;
64619;SDS011;51029;51.058;13.826;2023-08-30T13:27:33;3.47;;;1.43;;
64619;SDS011;51029;51.058;13.826;2023-08-30T13:29:59;4.13;;;1.60;;
64619;SDS011;51029;51.058;13.826;2023-08-30T13:32:25;2.57;;;1.30;;
64619;SDS011;51029;51.058;13.826;2023-08-30T13:34:50;1.97;;;1.33;;
64619;SDS011;51029;51.058;13.826;2023-08-30T13:37:16;2.87;;;1.50;;
64619;SDS011;51029;51.058;13.826;2023-08-30T13:39:42;2.17;;;1.40;;
64619;SDS011;51029;51.058;13.826;2023-08-30T13:42:08;2.60;;;1.42;;
64619;SDS011;51029;51.058;13.826;2023-08-30T13:44:33;2.28;;;1.40;;
64619;SDS011;51029;51.058;13.826;2023-08-30T13:47:02;2.53;;;1.30;;
64619;SDS011;51029;51.058;13.826;2023-08-30T13:49:29;1.70;;;1.20;;
64619;SDS011;51029;51.058;13.826;2023-08-30T13:51:55;2.53;;;1.23;;
64619;SDS011;51029;51.058;13.826;2023-08-30T13:54:20;1.67;;;1.23;;
64619;SDS011;51029;51.058;13.826;2023-08-30T13:56:46;2.80;;;1.30;;
64619;SDS011;51029;51.058;13.826;2023-08-30T13:59:11;3.63;;;1.25;;
64619;SDS011;51029;51.058;13.826;2023-08-30T14:01:37;2.63;;;1.20;;
64619;SDS011;51029;51.058;13.826;2023-08-30T14:04:02;2.75;;;1.40;;
64619;SDS011;51029;51.058;13.826;2023-08-30T14:06:31;2.33;;;1.20;;
64619;SDS011;51029;51.058;13.826;2023-08-30T14:08:57;1.98;;;1.30;;
64619;SDS011;51029;51.058;13.826;2023-08-30T14:11:23;2.60;;;1.38;;
64619;SDS011;51029;51.058;13.826;2023-08-30T14:13:48;1.90;;;1.30;;
64619;SDS011;51029;51.058;13.826;2023-08-30T14:16:14;2.47;;;1.30;;
64619;SDS011;51029;51.058;13.826;2023-08-30T14:18:39;2.17;;;1.33;;
64619;SDS011;51029;51.058;13.826;2023-08-30T14:21:05;1.88;;;1.33;;
64619;SDS011;51029;51.058;13.826;2023-08-30T14:23:31;2.28;;;1.50;;
64619;SDS011;51029;51.058;13.826;2023-08-30T14:25:57;1.70;;;1.50;;
64619;SDS011;51029;51.058;13.826;2023-08-30T14:28:24;2.97;;;1.50;;
64619;SDS011;51029;51.058;13.826;2023-08-30T14:30:50;1.75;;;1.30;;
64619;SDS011;51029;51.058;13.826;2023-08-30T14:33:16;1.77;;;1.30;;
64619;SDS011;51029;51.058;13.826;2023-08-30T14:35:44;1.20;;;1.02;;